createdAt,value
2022-10-16T00:19:32.853Z,1.77
2022-10-16T01:20:48.663Z,1.60
2022-10-16T01:32:13.264Z,2.50
2022-10-16T01:41:07.206Z,1.90
2022-10-16T01:44:19.782Z,2.20
2022-10-16T01:55:53.643Z,1.65
2022-10-16T01:59:12.170Z,1.80
2022-10-16T02:13:59.218Z,2.30
2022-10-16T02:17:11.840Z,4.40
2022-10-16T02:20:15.083Z,2.20
2022-10-16T03:32:09.184Z,2.45
2022-10-16T03:34:12.011Z,2.10
2022-10-16T04:22:20.594Z,4.20
2022-10-16T05:03:42.213Z,4.35
2022-10-16T05:06:25.824Z,3.38
2022-10-16T05:10:07.162Z,4.30
2022-10-16T05:27:08.463Z,2.20
2022-10-16T05:48:55.366Z,3.75
2022-10-16T06:06:11.531Z,2.58
2022-10-16T18:19:29.056Z,7.13
2022-10-16T18:22:08.043Z,9.07
2022-10-16T19:23:01.270Z,6.22
2022-10-16T19:29:18.118Z,4.75
2022-10-16T19:32:07.542Z,5.95
2022-10-16T19:34:50.946Z,7.57
2022-10-16T19:37:30.036Z,5.90
2022-10-16T19:40:02.874Z,5.68
2022-10-16T19:42:31.363Z,7.10
2022-10-16T19:45:09.322Z,5.72
2022-10-16T19:47:42.999Z,4.45
2022-10-16T19:53:16.141Z,3.58
2022-10-16T19:56:22.090Z,3.13
2022-10-16T19:59:25.465Z,3.22
2022-10-16T20:01:47.515Z,4.35
2022-10-16T20:07:16.826Z,10.07
2022-10-16T20:09:50.674Z,7.28
2022-10-16T20:12:33.614Z,6.97
2022-10-16T20:15:06.488Z,7.10
2022-10-16T20:17:38.911Z,7.20
2022-10-16T20:20:10.648Z,5.57
2022-10-16T20:22:49.223Z,13.20
2022-10-16T20:25:28.844Z,5.35
2022-10-16T20:28:04.656Z,9.50
2022-10-16T20:30:40.812Z,5.85
2022-10-16T20:33:16.885Z,5.25
2022-10-16T20:35:59.096Z,5.72
2022-10-16T20:38:50.458Z,8.02
2022-10-16T20:41:22.240Z,6.95
2022-10-16T20:43:57.984Z,7.53
2022-10-16T20:46:37.536Z,7.57
2022-10-16T20:49:35.695Z,8.48
2022-10-16T20:52:39.376Z,8.98
2022-10-16T20:56:07.874Z,10.30
2022-10-16T20:59:19.403Z,7.90
2022-10-16T21:05:24.021Z,7.65
2022-10-16T21:10:53.638Z,8.15
2022-10-16T21:13:39.781Z,8.80
2022-10-16T21:16:43.323Z,8.80
2022-10-16T21:19:16.828Z,7.97
2022-10-16T21:22:10.368Z,7.95
2022-10-16T21:24:48.854Z,7.05
2022-10-16T21:27:39.860Z,8.30
2022-10-16T21:30:16.374Z,8.10
2022-10-16T21:32:57.284Z,8.13
2022-10-16T21:38:42.459Z,11.60
2022-10-16T21:41:28.543Z,6.28
2022-10-16T21:44:12.683Z,5.10
2022-10-16T21:46:59.885Z,5.03
2022-10-16T21:49:32.937Z,4.22
2022-10-16T21:52:04.221Z,4.55
2022-10-16T21:54:47.020Z,6.50
2022-10-16T21:57:15.976Z,5.88
2022-10-16T21:59:57.345Z,7.07
2022-10-16T22:02:51.994Z,4.60
2022-10-16T22:05:23.939Z,6.13
2022-10-16T22:07:58.005Z,4.72
2022-10-16T22:10:36.785Z,4.82
2022-10-16T22:13:17.050Z,4.82
2022-10-16T22:16:20.652Z,7.18
2022-10-16T22:19:06.412Z,7.10
2022-10-16T22:21:41.281Z,3.90
2022-10-16T22:24:22.808Z,5.85
2022-10-16T22:27:01.530Z,7.53
2022-10-16T22:29:42.685Z,7.75
2022-10-16T22:32:28.187Z,11.38
2022-10-16T22:35:13.013Z,12.23
2022-10-16T22:38:04.964Z,6.97
2022-10-16T22:40:50.789Z,7.85
2022-10-16T22:43:42.887Z,5.97
2022-10-16T22:46:49.347Z,5.88
2022-10-16T22:49:22.648Z,6.32
2022-10-16T22:51:55.294Z,7.18
2022-10-16T22:57:25.530Z,7.25
2022-10-16T22:59:57.827Z,5.72
2022-10-16T23:02:29.833Z,5.45
2022-10-16T23:05:09.846Z,5.45
2022-10-16T23:07:53.479Z,5.22
2022-10-16T23:10:33.082Z,5.55
2022-10-16T23:13:09.823Z,4.63
2022-10-16T23:15:56.237Z,5.50
2022-10-16T23:18:30.941Z,5.07
2022-10-16T23:21:28.386Z,6.32
2022-10-16T23:24:02.427Z,5.35
2022-10-16T23:26:37.548Z,5.63
2022-10-16T23:29:08.502Z,5.78
2022-10-16T23:31:37.926Z,8.60
2022-10-16T23:34:19.275Z,7.38
2022-10-16T23:36:58.013Z,8.23
2022-10-16T23:39:35.377Z,9.55
2022-10-16T23:42:11.698Z,8.52
2022-10-16T23:44:47.623Z,11.52
2022-10-16T23:47:19.924Z,10.52
2022-10-16T23:49:57.440Z,8.15
2022-10-16T23:52:26.353Z,12.18
2022-10-16T23:54:57.806Z,10.30
2022-10-16T23:57:29.883Z,6.55
